createdAt,value
2019-04-04T00:00:49.757Z,5.60
2019-04-04T00:01:49.702Z,5.63
2019-04-04T00:02:49.855Z,5.61
2019-04-04T00:03:51.535Z,5.54
2019-04-04T00:04:52.339Z,5.46
2019-04-04T00:05:49.654Z,5.45
2019-04-04T00:06:49.650Z,5.45
2019-04-04T00:07:49.646Z,5.46
2019-04-04T00:08:49.650Z,5.58
2019-04-04T00:09:49.610Z,5.56
2019-04-04T00:10:49.603Z,5.64
2019-04-04T00:11:49.587Z,5.58
2019-04-04T00:12:49.575Z,5.63
2019-04-04T00:13:49.592Z,5.57
2019-04-04T00:14:49.561Z,5.58
2019-04-04T00:15:49.543Z,5.68
2019-04-04T00:16:49.554Z,5.61
2019-04-04T00:17:49.519Z,5.61
2019-04-04T00:18:49.510Z,5.61
2019-04-04T00:19:49.496Z,5.68
2019-04-04T00:20:49.513Z,5.57
2019-04-04T00:21:49.497Z,5.64
2019-04-04T00:22:49.466Z,5.58
2019-04-04T00:23:49.454Z,5.58
2019-04-04T00:24:49.465Z,5.58
2019-04-04T00:25:49.431Z,5.64
2019-04-04T00:26:49.417Z,5.64
2019-04-04T00:27:49.433Z,5.72
2019-04-04T00:28:49.398Z,5.72
2019-04-04T00:29:49.409Z,5.64
2019-04-04T00:30:49.373Z,5.64
2019-04-04T00:31:49.835Z,5.63
2019-04-04T00:32:50.918Z,5.63
2019-04-04T00:33:49.340Z,5.58
2019-04-04T00:34:49.332Z,5.61
2019-04-04T00:35:49.326Z,5.67
2019-04-04T00:36:49.320Z,5.71
2019-04-04T00:37:49.346Z,5.71
2019-04-04T00:38:49.303Z,5.65
2019-04-04T00:39:49.285Z,5.71
2019-04-04T00:40:49.275Z,5.71
2019-04-04T00:41:49.252Z,5.74
2019-04-04T00:42:49.260Z,5.78
2019-04-04T00:43:49.906Z,5.76
2019-04-04T00:44:49.215Z,5.82
2019-04-04T00:45:49.204Z,5.81
2019-04-04T00:46:49.198Z,5.83
2019-04-04T00:47:49.197Z,5.85
2019-04-04T00:48:49.180Z,5.79
2019-04-04T00:49:49.159Z,5.93
2019-04-04T00:50:49.172Z,5.85
2019-04-04T00:51:49.136Z,5.90
2019-04-04T00:52:49.149Z,5.82
2019-04-04T00:53:49.115Z,5.85
2019-04-04T00:54:49.106Z,5.79
2019-04-04T00:55:49.094Z,5.83
2019-04-04T00:56:49.329Z,5.76
2019-04-04T00:57:50.354Z,5.83
2019-04-04T00:58:51.678Z,5.83
2019-04-04T00:59:49.048Z,5.79
2019-04-04T01:00:49.044Z,5.72
2019-04-04T01:01:49.031Z,5.72
2019-04-04T01:02:49.028Z,5.74
2019-04-04T01:03:49.038Z,5.67
2019-04-04T01:04:48.993Z,5.65
2019-04-04T01:05:48.984Z,5.65
2019-04-04T01:06:48.972Z,5.65
2019-04-04T01:07:48.980Z,5.65
2019-04-04T01:08:48.950Z,5.54
2019-04-04T01:09:48.973Z,5.49
2019-04-04T01:10:49.797Z,5.48
2019-04-04T01:11:50.841Z,5.45
2019-04-04T01:12:50.167Z,5.51
2019-04-04T01:13:48.892Z,5.53
2019-04-04T01:14:48.906Z,5.56
2019-04-04T01:15:48.868Z,5.46
2019-04-04T01:16:48.857Z,5.43
2019-04-04T01:17:48.871Z,5.45
2019-04-04T01:18:48.839Z,5.40
2019-04-04T01:19:49.712Z,5.39
2019-04-04T01:20:50.476Z,5.46
2019-04-04T01:21:48.799Z,5.42
2019-04-04T01:22:48.787Z,5.43
2019-04-04T01:23:48.777Z,5.45
2019-04-04T01:24:48.789Z,5.48
2019-04-04T01:25:48.756Z,5.46
2019-04-04T01:26:48.750Z,5.49
2019-04-04T01:27:48.740Z,5.51
2019-04-04T01:28:48.720Z,5.46
2019-04-04T01:29:48.734Z,5.40
2019-04-04T01:30:48.699Z,5.46
2019-04-04T01:31:48.691Z,5.53
2019-04-04T01:32:48.771Z,5.53
2019-04-04T01:33:50.788Z,5.53
2019-04-04T01:34:51.763Z,5.58
2019-04-04T01:35:48.642Z,5.61
2019-04-04T01:36:48.659Z,5.54
2019-04-04T01:37:48.642Z,5.60
2019-04-04T01:38:48.608Z,5.74
2019-04-04T01:39:48.606Z,5.67
2019-04-04T01:40:48.612Z,5.67
2019-04-04T01:41:48.575Z,5.68
2019-04-04T01:42:48.567Z,5.82
2019-04-04T01:43:48.571Z,5.75
2019-04-04T01:44:48.541Z,5.74
2019-04-04T01:45:48.560Z,5.85
2019-04-04T01:46:48.533Z,5.83
2019-04-04T01:47:48.679Z,5.79
2019-04-04T01:48:49.950Z,5.94
2019-04-04T01:49:49.956Z,5.82
2019-04-04T01:50:48.474Z,5.82
2019-04-04T01:51:48.502Z,5.94
2019-04-04T01:52:48.492Z,5.93
2019-04-04T01:53:48.439Z,5.93
2019-04-04T01:54:48.428Z,5.86
2019-04-04T01:55:48.417Z,5.91
2019-04-04T01:56:48.428Z,5.94
2019-04-04T01:57:48.411Z,5.99
2019-04-04T01:58:48.412Z,5.90
2019-04-04T01:59:48.371Z,5.97
2019-04-04T02:00:48.384Z,5.97
2019-04-04T02:01:48.348Z,5.94
2019-04-04T02:02:49.915Z,5.89
2019-04-04T02:03:48.391Z,5.91
2019-04-04T02:04:48.318Z,5.89
2019-04-04T02:05:48.312Z,6.01
2019-04-04T02:06:48.296Z,5.99
2019-04-04T02:07:48.282Z,6.06
2019-04-04T02:08:48.328Z,6.00
2019-04-04T02:09:48.263Z,6.09
2019-04-04T02:10:48.249Z,6.09
2019-04-04T02:11:48.238Z,6.03
2019-04-04T02:12:48.227Z,6.14
2019-04-04T02:13:48.246Z,6.08
2019-04-04T02:14:48.239Z,6.09
2019-04-04T02:15:48.191Z,6.03
2019-04-04T02:16:50.967Z,6.11
2019-04-04T02:17:48.203Z,6.04
2019-04-04T02:18:48.158Z,6.06
2019-04-04T02:19:48.155Z,6.06
2019-04-04T02:20:48.167Z,6.11
2019-04-04T02:21:48.128Z,6.17
2019-04-04T02:22:48.112Z,6.14
2019-04-04T02:23:48.105Z,6.12
2019-04-04T02:24:48.118Z,6.12
2019-04-04T02:25:48.080Z,6.15
2019-04-04T02:26:48.073Z,6.15
2019-04-04T02:27:48.059Z,6.18
2019-04-04T02:28:48.068Z,6.18
2019-04-04T02:29:48.037Z,6.15
2019-04-04T02:30:48.511Z,6.18
2019-04-04T02:31:48.042Z,6.21
2019-04-04T02:32:48.019Z,6.11
2019-04-04T02:33:48.000Z,6.25
2019-04-04T02:34:47.977Z,6.21
2019-04-04T02:35:47.968Z,6.12
2019-04-04T02:36:49.294Z,6.17
2019-04-04T02:37:47.973Z,6.31
2019-04-04T02:38:47.941Z,6.18
2019-04-04T02:39:47.932Z,6.28
2019-04-04T02:40:47.912Z,6.30
2019-04-04T02:41:49.184Z,6.34
2019-04-04T02:42:47.890Z,6.25
2019-04-04T02:43:47.876Z,6.28
2019-04-04T02:44:47.876Z,6.31
2019-04-04T02:45:47.854Z,6.34
2019-04-04T02:46:47.867Z,6.33
2019-04-04T02:47:51.199Z,6.25
2019-04-04T02:48:47.822Z,6.30
2019-04-04T02:49:47.808Z,6.31
2019-04-04T02:50:47.809Z,6.27
2019-04-04T02:51:47.829Z,6.21
2019-04-04T02:52:47.786Z,6.25
2019-04-04T02:53:51.891Z,6.27
2019-04-04T02:54:48.760Z,6.22
2019-04-04T02:55:47.743Z,6.18
2019-04-04T02:56:47.753Z,6.25
2019-04-04T02:57:47.719Z,6.17
2019-04-04T02:58:47.716Z,6.18
2019-04-04T02:59:47.702Z,6.22
2019-04-04T03:00:47.707Z,6.27
2019-04-04T03:01:47.720Z,6.28
2019-04-04T03:02:47.665Z,6.27
2019-04-04T03:03:47.653Z,6.22
2019-04-04T03:04:47.668Z,6.25
2019-04-04T03:05:50.933Z,6.31
2019-04-04T03:06:47.618Z,6.21
2019-04-04T03:07:47.648Z,6.18
2019-04-04T03:08:47.604Z,6.06
2019-04-04T03:09:47.607Z,6.11
2019-04-04T03:10:48.927Z,6.15
2019-04-04T03:11:47.593Z,6.18
2019-04-04T03:12:47.563Z,6.21
2019-04-04T03:13:47.569Z,6.17
2019-04-04T03:14:50.545Z,6.19
2019-04-04T03:15:48.293Z,6.31
2019-04-04T03:16:47.520Z,6.19
2019-04-04T03:17:47.495Z,6.19
2019-04-04T03:18:47.536Z,6.25
2019-04-04T03:19:47.476Z,6.27
2019-04-04T03:20:50.363Z,6.19
2019-04-04T03:21:47.458Z,6.27
2019-04-04T03:22:47.439Z,6.25
2019-04-04T03:23:47.471Z,6.25
2019-04-04T03:24:47.441Z,6.25
2019-04-04T03:25:48.201Z,6.25
2019-04-04T03:26:52.150Z,6.25
2019-04-04T03:27:48.381Z,6.28
2019-04-04T03:28:47.370Z,6.15
2019-04-04T03:29:47.394Z,6.17
2019-04-04T03:30:54.794Z,6.14
2019-04-04T03:31:48.339Z,6.22
2019-04-04T03:32:52.487Z,6.15
2019-04-04T03:33:48.316Z,6.14
2019-04-04T03:34:50.252Z,6.18
2019-04-04T03:35:47.294Z,6.18
2019-04-04T03:36:47.287Z,6.22
2019-04-04T03:37:47.315Z,6.18
2019-04-04T03:38:47.496Z,6.15
2019-04-04T03:39:51.959Z,6.21
2019-04-04T03:40:48.261Z,6.17
2019-04-04T03:41:47.226Z,6.27
2019-04-04T03:42:47.215Z,6.15
2019-04-04T03:43:48.928Z,6.17
2019-04-04T03:44:47.200Z,6.15
2019-04-04T03:45:47.210Z,6.15
2019-04-04T03:46:47.183Z,6.17
2019-04-04T03:47:47.156Z,6.14
2019-04-04T03:48:49.845Z,6.17
2019-04-04T03:49:47.133Z,6.12
2019-04-04T03:50:47.160Z,6.17
2019-04-04T03:51:47.136Z,6.15
2019-04-04T03:52:47.103Z,6.14
2019-04-04T03:53:49.263Z,6.17
2019-04-04T03:54:47.078Z,6.18
2019-04-04T03:55:47.105Z,6.22
2019-04-04T03:56:47.059Z,6.21
2019-04-04T03:57:47.046Z,6.27
2019-04-04T03:58:47.419Z,6.31
2019-04-04T03:59:47.023Z,6.28
2019-04-04T04:00:47.011Z,6.31
2019-04-04T04:01:47.034Z,6.31
2019-04-04T04:02:49.660Z,6.22
2019-04-04T04:03:46.977Z,6.21
2019-04-04T04:04:46.968Z,6.15
2019-04-04T04:05:46.961Z,6.28
2019-04-04T04:06:46.944Z,6.28
2019-04-04T04:07:48.095Z,6.25
2019-04-04T04:08:46.940Z,6.31
2019-04-04T04:09:46.909Z,6.25
2019-04-04T04:10:46.898Z,6.28
2019-04-04T04:11:46.904Z,6.31
2019-04-04T04:12:46.878Z,6.27
2019-04-04T04:13:49.951Z,6.25
2019-04-04T04:14:46.856Z,6.28
2019-04-04T04:15:46.840Z,6.25
2019-04-04T04:16:46.831Z,6.30
2019-04-04T04:17:46.828Z,6.34
2019-04-04T04:18:46.826Z,6.28
2019-04-04T04:19:46.798Z,6.31
2019-04-04T04:20:46.790Z,6.22
2019-04-04T04:21:46.776Z,6.22
2019-04-04T04:22:50.301Z,6.28
2019-04-04T04:23:49.630Z,6.31
2019-04-04T04:24:46.768Z,6.22
2019-04-04T04:25:46.759Z,6.22
2019-04-04T04:26:46.721Z,6.15
2019-04-04T04:27:48.382Z,6.22
2019-04-04T04:28:46.700Z,6.31
2019-04-04T04:29:46.725Z,6.15
2019-04-04T04:30:46.674Z,6.12
2019-04-04T04:31:49.351Z,6.12
2019-04-04T04:32:46.660Z,6.14
2019-04-04T04:33:46.647Z,6.12
2019-04-04T04:34:46.671Z,6.12
2019-04-04T04:35:46.620Z,6.15
2019-04-04T04:36:48.006Z,6.08
2019-04-04T04:37:46.602Z,6.18
2019-04-04T04:38:46.587Z,6.15
2019-04-04T04:39:46.598Z,6.15
2019-04-04T04:40:47.485Z,6.12
2019-04-04T04:41:46.552Z,6.12
2019-04-04T04:42:46.541Z,6.15
2019-04-04T04:43:46.530Z,6.15
2019-04-04T04:44:46.518Z,6.11
2019-04-04T04:45:46.543Z,6.15
2019-04-04T04:46:49.698Z,6.14
2019-04-04T04:47:46.489Z,6.14
2019-04-04T04:48:46.473Z,6.14
2019-04-04T04:49:46.464Z,6.09
2019-04-04T04:50:46.458Z,6.14
2019-04-04T04:51:46.469Z,6.06
2019-04-04T04:52:47.545Z,6.15
2019-04-04T04:53:50.166Z,6.12
2019-04-04T04:54:46.403Z,6.12
2019-04-04T04:55:46.399Z,6.12
2019-04-04T04:56:46.406Z,6.11
2019-04-04T04:57:46.391Z,6.15
2019-04-04T04:58:46.385Z,6.06
2019-04-04T04:59:46.356Z,5.97
2019-04-04T05:00:47.243Z,5.99
2019-04-04T05:01:50.133Z,6.04
2019-04-04T05:02:46.316Z,6.01
2019-04-04T05:03:46.308Z,6.03
2019-04-04T05:04:46.302Z,6.09
2019-04-04T05:05:46.280Z,6.03
2019-04-04T05:06:46.296Z,6.14
2019-04-04T05:07:46.265Z,6.09
2019-04-04T05:08:46.249Z,6.19
2019-04-04T05:09:46.235Z,6.18
2019-04-04T05:10:46.357Z,6.19
2019-04-04T05:11:46.238Z,6.14
2019-04-04T05:12:46.216Z,6.22
2019-04-04T05:13:46.281Z,6.17
2019-04-04T05:14:46.204Z,6.17
2019-04-04T05:15:46.169Z,6.22
2019-04-04T05:16:46.157Z,6.28
2019-04-04T05:17:46.146Z,6.17
2019-04-04T05:18:48.189Z,6.15
2019-04-04T05:19:46.148Z,6.21
2019-04-04T05:20:46.146Z,6.19
2019-04-04T05:21:46.107Z,6.12
2019-04-04T05:22:46.106Z,6.25
2019-04-04T05:23:46.992Z,6.17
2019-04-04T05:24:49.122Z,6.18
2019-04-04T05:25:53.719Z,6.12
2019-04-04T05:26:47.076Z,6.14
2019-04-04T05:27:46.035Z,6.11
2019-04-04T05:28:46.072Z,6.12
2019-04-04T05:29:46.036Z,6.15
2019-04-04T05:30:47.300Z,6.15
2019-04-04T05:31:45.990Z,6.22
2019-04-04T05:32:45.979Z,6.21
2019-04-04T05:33:45.969Z,6.14
2019-04-04T05:34:45.986Z,6.18
2019-04-04T05:35:45.947Z,6.25
2019-04-04T05:36:45.938Z,6.21
2019-04-04T05:37:45.924Z,6.18
2019-04-04T05:38:47.273Z,6.28
2019-04-04T05:39:47.066Z,6.18
2019-04-04T05:40:45.914Z,6.28
2019-04-04T05:41:45.888Z,6.21
2019-04-04T05:42:45.895Z,6.31
2019-04-04T05:43:45.904Z,6.28
2019-04-04T05:44:45.867Z,6.31
2019-04-04T05:45:45.967Z,6.25
2019-04-04T05:46:45.830Z,6.31
2019-04-04T05:47:45.834Z,6.33
2019-04-04T05:48:45.843Z,6.30
2019-04-04T05:49:45.789Z,6.33
2019-04-04T05:50:45.777Z,6.27
2019-04-04T05:51:46.325Z,6.31
2019-04-04T05:52:45.758Z,6.28
2019-04-04T05:53:45.776Z,6.44
2019-04-04T05:54:45.732Z,6.31
2019-04-04T05:55:45.749Z,6.44
2019-04-04T05:56:48.601Z,6.44
2019-04-04T05:57:45.720Z,6.41
2019-04-04T05:58:45.699Z,6.38
2019-04-04T05:59:45.702Z,6.46
2019-04-04T06:00:45.708Z,6.44
2019-04-04T06:01:45.711Z,6.44
2019-04-04T06:02:45.645Z,6.33
2019-04-04T06:03:47.854Z,6.40
2019-04-04T06:04:45.620Z,6.44
2019-04-04T06:05:45.643Z,6.40
2019-04-04T06:06:45.629Z,6.40
2019-04-04T06:07:45.602Z,6.43
2019-04-04T06:08:45.574Z,6.44
2019-04-04T06:09:46.927Z,6.48
2019-04-04T06:10:45.573Z,6.44
2019-04-04T06:11:48.445Z,6.52
2019-04-04T06:12:45.528Z,6.52
2019-04-04T06:13:45.552Z,6.54
2019-04-04T06:14:46.110Z,6.59
2019-04-04T06:15:45.495Z,6.69
2019-04-04T06:16:45.483Z,6.77
2019-04-04T06:17:45.502Z,6.77
2019-04-04T06:18:45.461Z,6.70
2019-04-04T06:19:45.450Z,6.62
2019-04-04T06:20:48.344Z,6.77
2019-04-04T06:21:45.427Z,6.74
2019-04-04T06:22:45.441Z,6.79
2019-04-04T06:23:45.410Z,6.79
2019-04-04T06:24:45.396Z,6.76
2019-04-04T06:25:45.418Z,6.85
2019-04-04T06:26:45.426Z,6.91
2019-04-04T06:27:45.361Z,6.91
2019-04-04T06:28:45.353Z,6.94
2019-04-04T06:29:47.571Z,6.88
2019-04-04T06:30:45.358Z,6.85
2019-04-04T06:31:45.359Z,6.79
2019-04-04T06:32:45.307Z,6.88
2019-04-04T06:33:45.309Z,6.91
2019-04-04T06:34:45.285Z,6.94
2019-04-04T06:35:47.869Z,6.89
2019-04-04T06:36:47.034Z,6.89
2019-04-04T06:37:46.192Z,6.88
2019-04-04T06:38:45.253Z,6.85
2019-04-04T06:39:45.233Z,6.84
2019-04-04T06:40:45.239Z,6.80
2019-04-04T06:41:45.204Z,6.91
2019-04-04T06:42:45.207Z,6.87
2019-04-04T06:43:45.203Z,6.85
2019-04-04T06:44:45.206Z,6.91
2019-04-04T06:45:46.516Z,6.94
2019-04-04T06:46:45.151Z,6.94
2019-04-04T06:47:45.137Z,7.02
2019-04-04T06:48:45.129Z,7.02
2019-04-04T06:49:45.873Z,6.98
2019-04-04T06:50:45.136Z,6.94
2019-04-04T06:51:46.434Z,6.91
2019-04-04T06:52:45.118Z,6.94
2019-04-04T06:53:46.882Z,6.95
2019-04-04T06:54:45.065Z,6.95
2019-04-04T06:55:45.056Z,6.99
2019-04-04T06:56:45.061Z,6.92
2019-04-04T06:57:47.549Z,6.81
2019-04-04T06:58:45.015Z,6.85
2019-04-04T06:59:45.008Z,6.84
2019-04-04T07:00:48.473Z,6.92
2019-04-04T07:01:44.981Z,6.89
2019-04-04T07:02:47.174Z,6.95
2019-04-04T07:03:44.957Z,6.95
2019-04-04T07:04:44.946Z,7.10
2019-04-04T07:05:44.955Z,7.02
2019-04-04T07:06:44.927Z,7.09
2019-04-04T07:07:44.918Z,7.09
2019-04-04T07:08:45.108Z,7.23
2019-04-04T07:09:44.918Z,7.24
2019-04-04T07:10:57.149Z,7.27
2019-04-04T07:11:45.872Z,7.27
2019-04-04T07:12:44.862Z,7.24
2019-04-04T07:13:44.871Z,7.25
2019-04-04T07:14:45.945Z,7.21
2019-04-04T07:15:46.905Z,7.32
2019-04-04T07:16:45.824Z,7.31
2019-04-04T07:17:44.803Z,7.32
2019-04-04T07:18:44.792Z,7.32
2019-04-04T07:19:46.256Z,7.27
2019-04-04T07:20:47.903Z,7.24
2019-04-04T07:21:44.764Z,7.23
2019-04-04T07:22:44.765Z,7.24
2019-04-04T07:23:44.763Z,7.30
2019-04-04T07:24:44.730Z,7.31
2019-04-04T07:25:44.749Z,7.39
2019-04-04T07:26:45.523Z,7.37
2019-04-04T07:27:47.117Z,7.48
2019-04-04T07:28:44.696Z,7.48
2019-04-04T07:29:44.666Z,7.58
2019-04-04T07:30:44.657Z,7.53
2019-04-04T07:31:44.649Z,7.46
2019-04-04T07:32:44.630Z,7.55
2019-04-04T07:33:44.659Z,7.60
2019-04-04T07:34:45.831Z,7.49
2019-04-04T07:35:44.601Z,7.49
2019-04-04T07:36:44.590Z,7.45
2019-04-04T07:37:44.579Z,7.45
2019-04-04T07:38:44.590Z,7.53
2019-04-04T07:39:44.555Z,7.50
2019-04-04T07:40:44.544Z,7.60
2019-04-04T07:41:44.986Z,7.64
2019-04-04T07:42:47.011Z,7.61
2019-04-04T07:43:44.517Z,7.49
2019-04-04T07:44:44.520Z,7.53
2019-04-04T07:45:44.509Z,7.50
2019-04-04T07:46:45.717Z,7.63
2019-04-04T07:47:46.650Z,7.68
2019-04-04T07:48:44.481Z,7.67
2019-04-04T07:49:44.464Z,7.67
2019-04-04T07:50:44.429Z,7.69
2019-04-04T07:51:44.417Z,7.50
2019-04-04T07:52:44.408Z,7.53
2019-04-04T07:53:44.398Z,7.53
2019-04-04T07:54:44.411Z,7.49
2019-04-04T07:55:44.372Z,7.58
2019-04-04T07:56:46.881Z,7.63
2019-04-04T07:57:44.352Z,7.64
2019-04-04T07:58:44.338Z,7.86
2019-04-04T07:59:44.344Z,7.75
2019-04-04T08:00:44.317Z,7.69
2019-04-04T08:01:51.023Z,7.63
2019-04-04T08:02:45.293Z,7.61
2019-04-04T08:03:44.283Z,7.53
2019-04-04T08:04:44.301Z,7.61
2019-04-04T08:05:44.259Z,7.68
2019-04-04T08:06:44.247Z,7.82
2019-04-04T08:07:44.238Z,7.89
2019-04-04T08:08:44.247Z,7.93
2019-04-04T08:09:44.220Z,7.87
2019-04-04T08:10:44.206Z,7.89
2019-04-04T08:11:44.219Z,7.85
2019-04-04T08:12:44.201Z,7.92
2019-04-04T08:13:44.172Z,7.85
2019-04-04T08:14:44.161Z,7.89
2019-04-04T08:15:44.168Z,7.86
2019-04-04T08:16:44.135Z,7.92
2019-04-04T08:17:44.129Z,8.07
2019-04-04T08:18:44.112Z,8.11
2019-04-04T08:19:44.139Z,8.05
2019-04-04T08:20:44.098Z,8.04
2019-04-04T08:21:44.083Z,7.92
2019-04-04T08:22:44.068Z,7.82
2019-04-04T08:23:44.054Z,7.72
2019-04-04T08:24:44.082Z,7.63
2019-04-04T08:25:44.032Z,7.67
2019-04-04T08:26:44.026Z,7.67
2019-04-04T08:27:44.043Z,7.67
2019-04-04T08:28:43.999Z,7.67
2019-04-04T08:29:43.988Z,7.63
2019-04-04T08:30:44.001Z,7.64
2019-04-04T08:31:43.967Z,7.64
2019-04-04T08:32:43.968Z,7.82
2019-04-04T08:33:43.940Z,7.95
2019-04-04T08:34:43.951Z,7.80
2019-04-04T08:35:43.925Z,7.64
2019-04-04T08:36:43.937Z,7.64
2019-04-04T08:37:43.900Z,7.64
2019-04-04T08:38:43.886Z,7.68
2019-04-04T08:39:43.876Z,7.71
2019-04-04T08:40:46.093Z,7.53
2019-04-04T08:41:43.875Z,7.58
2019-04-04T08:42:43.849Z,7.63
2019-04-04T08:43:43.838Z,7.63
2019-04-04T08:44:43.819Z,7.72
2019-04-04T08:45:43.815Z,7.64
2019-04-04T08:46:43.821Z,7.52
2019-04-04T08:47:43.846Z,7.68
2019-04-04T08:48:43.772Z,7.79
2019-04-04T08:49:43.784Z,7.74
2019-04-04T08:50:43.750Z,7.89
2019-04-04T08:51:43.750Z,7.79
2019-04-04T08:52:43.730Z,7.69
2019-04-04T08:53:43.718Z,7.69
2019-04-04T08:54:43.720Z,7.83
2019-04-04T08:55:43.697Z,7.77
2019-04-04T08:56:43.682Z,7.79
2019-04-04T08:57:43.697Z,7.89
2019-04-04T08:58:43.659Z,7.82
2019-04-04T08:59:43.655Z,7.80
2019-04-04T09:00:43.637Z,7.82
2019-04-04T09:01:43.630Z,7.80
2019-04-04T09:02:43.638Z,7.74
2019-04-04T09:03:43.634Z,7.85
2019-04-04T09:04:43.596Z,8.10
2019-04-04T09:05:43.585Z,7.92
2019-04-04T09:06:43.568Z,7.87
2019-04-04T09:07:43.559Z,8.01
2019-04-04T09:08:43.578Z,8.01
2019-04-04T09:09:43.638Z,8.08
2019-04-04T09:10:43.535Z,8.10
2019-04-04T09:11:43.511Z,8.07
2019-04-04T09:12:43.503Z,8.05
2019-04-04T09:13:43.488Z,8.15
2019-04-04T09:14:43.500Z,8.00
2019-04-04T09:15:43.469Z,8.02
2019-04-04T09:16:43.456Z,8.04
2019-04-04T09:17:43.458Z,8.08
2019-04-04T09:18:43.432Z,8.19
2019-04-04T09:19:43.438Z,8.04
2019-04-04T09:20:43.411Z,8.07
2019-04-04T09:21:43.412Z,8.10
2019-04-04T09:22:43.389Z,8.12
2019-04-04T09:23:43.401Z,8.18
2019-04-04T09:24:43.373Z,8.34
2019-04-04T09:25:43.359Z,8.36
2019-04-04T09:26:43.373Z,8.41
2019-04-04T09:27:43.345Z,8.50
2019-04-04T09:28:43.321Z,8.41
2019-04-04T09:29:43.309Z,8.26
2019-04-04T09:30:43.299Z,8.33
2019-04-04T09:31:43.313Z,8.28
2019-04-04T09:32:43.275Z,8.28
2019-04-04T09:33:43.265Z,8.30
2019-04-04T09:34:43.277Z,8.36
2019-04-04T09:35:43.249Z,8.18
2019-04-04T09:36:43.231Z,8.10
2019-04-04T09:37:43.252Z,8.16
2019-04-04T09:38:43.206Z,8.15
2019-04-04T09:39:43.202Z,8.19
2019-04-04T09:40:43.203Z,8.33
2019-04-04T09:41:43.174Z,8.33
2019-04-04T09:42:43.170Z,8.30
2019-04-04T09:43:43.183Z,8.30
2019-04-04T09:44:43.139Z,8.30
2019-04-04T09:45:43.742Z,8.30
2019-04-04T09:46:43.128Z,8.25
2019-04-04T09:47:43.131Z,8.29
2019-04-04T09:48:43.102Z,8.19
2019-04-04T09:49:43.097Z,8.18
2019-04-04T09:50:43.113Z,8.01
2019-04-04T09:51:43.063Z,8.11
2019-04-04T09:52:43.049Z,8.20
2019-04-04T09:53:52.840Z,8.29
2019-04-04T09:54:44.032Z,8.19
2019-04-04T09:55:43.042Z,8.28
2019-04-04T09:56:43.011Z,8.22
2019-04-04T09:57:43.020Z,8.20
2019-04-04T09:58:42.988Z,8.38
2019-04-04T09:59:42.971Z,8.38
2019-04-04T10:00:42.990Z,8.40
2019-04-04T10:01:42.952Z,8.36
2019-04-04T10:02:42.941Z,8.44
2019-04-04T10:03:42.931Z,8.53
2019-04-04T10:04:42.917Z,8.61
2019-04-04T10:05:42.932Z,8.56
2019-04-04T10:06:42.890Z,8.77
2019-04-04T10:07:42.879Z,8.91
2019-04-04T10:08:42.935Z,8.96
2019-04-04T10:09:42.859Z,8.95
2019-04-04T10:10:42.852Z,8.87
2019-04-04T10:11:42.844Z,8.81
2019-04-04T10:12:42.827Z,8.95
2019-04-04T10:13:42.840Z,8.95
2019-04-04T10:14:42.805Z,9.10
2019-04-04T10:15:42.790Z,9.13
2019-04-04T10:16:42.778Z,9.05
2019-04-04T10:17:42.783Z,9.11
2019-04-04T10:18:42.756Z,9.10
2019-04-04T10:19:42.748Z,9.21
2019-04-04T10:20:42.736Z,9.32
2019-04-04T10:21:42.756Z,9.35
2019-04-04T10:22:42.710Z,9.46
2019-04-04T10:23:42.701Z,9.57
2019-04-04T10:24:42.703Z,9.53
2019-04-04T10:25:42.701Z,9.51
2019-04-04T10:26:42.665Z,9.61
2019-04-04T10:27:42.658Z,9.54
2019-04-04T10:28:42.642Z,9.43
2019-04-04T10:29:42.651Z,9.53
2019-04-04T10:30:42.650Z,9.72
2019-04-04T10:31:42.608Z,9.74
2019-04-04T10:32:42.599Z,9.66
2019-04-04T10:33:42.603Z,9.56
2019-04-04T10:34:42.610Z,9.79
2019-04-04T10:35:42.577Z,9.89
2019-04-04T10:36:42.554Z,10.12
2019-04-04T10:37:42.571Z,10.34
2019-04-04T10:38:42.541Z,10.41
2019-04-04T10:39:42.520Z,10.61
2019-04-04T10:40:42.508Z,10.97
2019-04-04T10:41:42.498Z,10.79
2019-04-04T10:42:42.523Z,10.86
2019-04-04T10:43:42.479Z,10.55
2019-04-04T10:44:42.463Z,10.52
2019-04-04T10:45:42.639Z,10.33
2019-04-04T10:46:42.446Z,10.18
2019-04-04T10:47:42.553Z,10.20
2019-04-04T10:48:42.418Z,10.09
2019-04-04T10:49:42.425Z,9.97
2019-04-04T10:50:42.394Z,9.99
2019-04-04T10:51:42.411Z,9.79
2019-04-04T10:52:42.399Z,9.76
2019-04-04T10:53:42.362Z,9.64
2019-04-04T10:54:42.351Z,9.61
2019-04-04T10:55:42.339Z,9.48
2019-04-04T10:56:42.354Z,9.50
2019-04-04T10:57:42.317Z,9.53
2019-04-04T10:58:42.330Z,9.50
2019-04-04T10:59:42.326Z,9.48
2019-04-04T11:00:42.284Z,9.54
2019-04-04T11:01:42.312Z,9.66
2019-04-04T11:02:42.336Z,9.79
2019-04-04T11:03:42.250Z,9.79
2019-04-04T11:04:42.244Z,9.78
2019-04-04T11:05:42.237Z,9.93
2019-04-04T11:06:42.246Z,10.01
2019-04-04T11:07:42.203Z,9.91
2019-04-04T11:08:42.194Z,9.90
2019-04-04T11:09:42.543Z,9.83
2019-04-04T11:10:42.194Z,9.93
2019-04-04T11:11:42.197Z,10.14
2019-04-04T11:12:42.150Z,10.32
2019-04-04T11:13:42.140Z,10.53
2019-04-04T11:14:42.127Z,10.26
2019-04-04T11:15:42.125Z,10.14
2019-04-04T11:16:42.124Z,10.05
2019-04-04T11:17:42.094Z,9.90
2019-04-04T11:18:42.079Z,9.94
2019-04-04T11:19:43.535Z,10.11
2019-04-04T11:20:42.075Z,10.22
2019-04-04T11:21:42.046Z,10.22
2019-04-04T11:22:42.067Z,10.30
2019-04-04T11:23:42.025Z,10.29
2019-04-04T11:24:42.020Z,10.20
2019-04-04T11:25:42.003Z,10.08
2019-04-04T11:26:42.024Z,10.12
2019-04-04T11:27:41.988Z,10.05
2019-04-04T11:28:41.971Z,10.08
2019-04-04T11:29:41.955Z,10.23
2019-04-04T11:30:41.952Z,10.38
2019-04-04T11:31:41.957Z,10.60
2019-04-04T11:32:41.952Z,10.82
2019-04-04T11:33:41.914Z,11.03
2019-04-04T11:34:52.689Z,11.28
2019-04-04T11:35:42.887Z,11.25
2019-04-04T11:36:41.887Z,11.04
2019-04-04T11:37:41.895Z,10.70
2019-04-04T11:38:44.086Z,10.47
2019-04-04T11:39:53.751Z,10.40
2019-04-04T11:40:42.832Z,10.33
2019-04-04T11:41:41.827Z,10.36
2019-04-04T11:42:41.848Z,10.29
2019-04-04T11:43:41.806Z,10.32
2019-04-04T11:44:41.797Z,10.26
2019-04-04T11:45:41.779Z,10.07
2019-04-04T11:46:41.768Z,10.02
2019-04-04T11:47:41.785Z,9.89
2019-04-04T11:48:41.742Z,9.81
2019-04-04T11:49:41.754Z,9.93
2019-04-04T11:50:41.749Z,9.96
2019-04-04T11:51:41.710Z,10.11
2019-04-04T11:52:41.728Z,9.96
2019-04-04T11:53:41.686Z,9.94
2019-04-04T11:54:41.687Z,9.90
2019-04-04T11:55:41.667Z,9.89
2019-04-04T11:56:41.658Z,9.97
2019-04-04T11:57:41.664Z,9.89
2019-04-04T11:58:41.629Z,9.90
2019-04-04T11:59:41.653Z,9.65
2019-04-04T12:00:41.608Z,9.64
2019-04-04T12:01:41.594Z,9.69
2019-04-04T12:02:41.612Z,9.74
2019-04-04T12:03:41.583Z,9.65
2019-04-04T12:04:41.562Z,9.72
2019-04-04T12:05:41.573Z,9.78
2019-04-04T12:06:41.541Z,9.58
2019-04-04T12:07:41.526Z,9.66
2019-04-04T12:08:41.524Z,9.71
2019-04-04T12:09:41.508Z,9.78
2019-04-04T12:10:41.517Z,9.79
2019-04-04T12:11:41.486Z,9.75
2019-04-04T12:12:41.470Z,9.71
2019-04-04T12:13:41.464Z,9.61
2019-04-04T12:14:41.488Z,9.56
2019-04-04T12:15:41.436Z,9.69
2019-04-04T12:16:41.426Z,9.72
2019-04-04T12:17:41.415Z,9.83
2019-04-04T12:18:41.404Z,9.78
2019-04-04T12:19:41.423Z,9.69
2019-04-04T12:20:43.325Z,9.78
2019-04-04T12:21:41.369Z,9.58
2019-04-04T12:22:41.388Z,9.66
2019-04-04T12:23:41.347Z,9.64
2019-04-04T12:24:41.384Z,9.54
2019-04-04T12:25:41.323Z,9.60
2019-04-04T12:26:41.314Z,9.65
2019-04-04T12:27:41.313Z,9.76
2019-04-04T12:28:41.291Z,9.81
2019-04-04T12:29:41.309Z,9.72
2019-04-04T12:30:41.267Z,9.75
2019-04-04T12:31:41.259Z,9.64
2019-04-04T12:32:41.246Z,9.72
2019-04-04T12:33:41.238Z,9.74
2019-04-04T12:34:41.252Z,9.60
2019-04-04T12:35:41.231Z,9.64
2019-04-04T12:36:41.201Z,9.58
2019-04-04T12:37:41.189Z,9.72
2019-04-04T12:38:41.206Z,9.81
2019-04-04T12:39:41.170Z,9.89
2019-04-04T12:40:41.189Z,9.84
2019-04-04T12:41:41.150Z,9.96
2019-04-04T12:42:41.139Z,9.90
2019-04-04T12:43:41.143Z,9.89
2019-04-04T12:44:41.111Z,9.72
2019-04-04T12:45:41.101Z,9.61
2019-04-04T12:46:42.515Z,9.66
2019-04-04T12:47:41.107Z,9.65
2019-04-04T12:48:41.069Z,9.74
2019-04-04T12:49:41.059Z,9.64
2019-04-04T12:50:41.046Z,9.64
2019-04-04T12:51:41.031Z,9.78
2019-04-04T12:52:41.051Z,9.86
2019-04-04T12:53:41.008Z,9.90
2019-04-04T12:54:41.001Z,9.89
2019-04-04T12:55:40.987Z,10.01
2019-04-04T12:56:40.979Z,9.93
2019-04-04T12:57:41.000Z,10.05
2019-04-04T12:58:40.957Z,9.99
2019-04-04T12:59:40.943Z,9.97
2019-04-04T13:00:40.940Z,10.02
2019-04-04T13:01:40.952Z,10.02
2019-04-04T13:02:40.933Z,9.94
2019-04-04T13:03:40.910Z,10.07
2019-04-04T13:04:40.903Z,9.97
2019-04-04T13:05:40.898Z,9.96
2019-04-04T13:06:40.863Z,9.78
2019-04-04T13:07:40.849Z,9.66
2019-04-04T13:08:40.864Z,9.69
2019-04-04T13:09:40.831Z,9.60
2019-04-04T13:10:40.828Z,9.66
2019-04-04T13:11:40.839Z,9.79
2019-04-04T13:12:40.795Z,9.91
2019-04-04T13:13:40.819Z,9.87
2019-04-04T13:14:40.771Z,9.90
2019-04-04T13:15:40.771Z,10.11
2019-04-04T13:16:40.771Z,10.22